Asukamaru — JG5536 — position and weather

sailwx.info

Track history (hours):
 
Tides and Currents Weather Stations Pressure Air Temp Water Temp Dewpoint Dewpoint Depression Visibility Wind Speed Wind Dir Waves Ship Positions

Asukamaru

Last reported at 2014-Sep-30 10:16 UTC. Time now 2014-Sep-30 17:58 UTC.
Position N 35°38' E 139°46'.

Length 31 m; draft 3 m.

Type: Tug. MMSI: 431001145.

Date/timePositionNaut miles runAvg speedWind from/ knotsBaromVisibWave heightAir tempDewpointWater temp
2014-Sep-30 10:16N 35°38' E 139°46'0 0.3
2014-Sep-30 09:05N 35°37' E 139°46'1 0.1
2014-Sep-29 22:30N 35°38' E 139°46'3 2.9
2014-Sep-29 21:33N 35°36' E 139°47'1 0.0
2014-Sep-28 13:33N 35°37' E 139°47'3 3.4
2014-Sep-28 12:32N 35°34' E 139°49'3 2.8
2014-Sep-28 11:33N 35°35' E 139°47'0 0.0
2014-Sep-28 10:32N 35°35' E 139°47'1 0.4
2014-Sep-28 07:04N 35°37' E 139°46'0 0.1
2014-Sep-28 04:24N 35°37' E 139°46'4 5.3
2014-Sep-28 03:33N 35°34' E 139°50'6 1.4
2014-Sep-27 23:31N 35°38' E 139°45'4 3.6
2014-Sep-27 22:33N 35°35' E 139°48'3 0.1
2014-Sep-26 23:27N 35°37' E 139°46'3 3.0
2014-Sep-26 22:33N 35°35' E 139°47'1 0.8
2014-Sep-26 21:33N 35°35' E 139°47'1 1.2
2014-Sep-26 20:31N 35°37' E 139°46'1 0.0
2014-Sep-25 18:30N 35°36' E 139°47'0 0.4
2014-Sep-25 17:33N 35°36' E 139°47'2 1.6
2014-Sep-25 16:33N 35°37' E 139°46'0 0.0
2014-Sep-25 07:30N 35°37' E 139°46'1 0.1
2014-Sep-24 23:26N 35°38' E 139°46'2 2.1
2014-Sep-24 22:27N 35°36' E 139°46'1 0.3
2014-Sep-24 20:26N 35°37' E 139°46'  
2014-Sep-20 23:07N 35°35' E 139°47'1 1.1
2014-Sep-20 22:31N 35°35' E 139°47'2 1.6
2014-Sep-20 21:33N 35°34' E 139°49'  
Track history (hours):
 
Tides and Currents Weather Stations Pressure Air Temp Water Temp Dewpoint Dewpoint Depression Visibility Wind Speed Wind Dir Waves Ship Positions

Asukamaru

Last reported at 2014-Sep-30 10:16 UTC. Time now 2014-Sep-30 17:58 UTC.
Position N 35°38' E 139°46'.

Length 31 m; draft 3 m.

Type: Tug. MMSI: 431001145.

Date/timePositionNaut miles runAvg speedWind from/ knotsBaromVisibWave heightAir tempDewpointWater temp
2014-Sep-30 10:16N 35°38' E 139°46'0 0.3
2014-Sep-30 09:05N 35°37' E 139°46'1 0.1
2014-Sep-29 22:30N 35°38' E 139°46'3 2.9
2014-Sep-29 21:33N 35°36' E 139°47'1 0.0
2014-Sep-28 13:33N 35°37' E 139°47'3 3.4
2014-Sep-28 12:32N 35°34' E 139°49'3 2.8
2014-Sep-28 11:33N 35°35' E 139°47'0 0.0
2014-Sep-28 10:32N 35°35' E 139°47'1 0.4
2014-Sep-28 07:04N 35°37' E 139°46'0 0.1
2014-Sep-28 04:24N 35°37' E 139°46'4 5.3
2014-Sep-28 03:33N 35°34' E 139°50'6 1.4
2014-Sep-27 23:31N 35°38' E 139°45'4 3.6
2014-Sep-27 22:33N 35°35' E 139°48'3 0.1
2014-Sep-26 23:27N 35°37' E 139°46'3 3.0
2014-Sep-26 22:33N 35°35' E 139°47'1 0.8
2014-Sep-26 21:33N 35°35' E 139°47'1 1.2
2014-Sep-26 20:31N 35°37' E 139°46'1 0.0
2014-Sep-25 18:30N 35°36' E 139°47'0 0.4
2014-Sep-25 17:33N 35°36' E 139°47'2 1.6
2014-Sep-25 16:33N 35°37' E 139°46'0 0.0
2014-Sep-25 07:30N 35°37' E 139°46'1 0.1
2014-Sep-24 23:26N 35°38' E 139°46'2 2.1
2014-Sep-24 22:27N 35°36' E 139°46'1 0.3
2014-Sep-24 20:26N 35°37' E 139°46'  
2014-Sep-20 23:07N 35°35' E 139°47'1 1.1
2014-Sep-20 22:31N 35°35' E 139°47'2 1.6
2014-Sep-20 21:33N 35°34' E 139°49'  

Dump ship's entire track history